Time;durP1;ratioP1;P1;durP2;ratioP2;P2;SDS_P1;SDS_P2;PMS_P1;PMS_P2;Temp;Humidity;BMP_temperature;BMP_pressure;BME280_temperature;BME280_humidity;BME280_pressure;Samples;Min_cycle;Max_cycle;Signal;HPM_P1;HPM_P2
2022/12/26 00:01:35;;;;;;;42.05;21.38;;;8.50;99.90;;;;;;4943032;28;20040;-83
2022/12/26 00:04:01;;;;;;;61.83;25.90;;;8.50;99.90;;;;;;4934308;29;20135;-85
2022/12/26 00:06:29;;;;;;;63.42;25.60;;;8.50;99.90;;;;;;4914201;29;20473;-83
2022/12/26 00:08:55;;;;;;;64.93;25.35;;;8.50;99.90;;;;;;4930536;29;20414;-84
2022/12/26 00:11:22;;;;;;;53.65;24.52;;;8.50;99.90;;;;;;4932512;29;20048;-83
2022/12/26 00:13:56;;;;;;;60.28;25.77;;;8.40;99.90;;;;;;4931286;29;20036;-83
2022/12/26 00:16:26;;;;;;;38.22;21.98;;;8.50;99.90;;;;;;4929195;29;20043;-83
2022/12/26 00:18:53;;;;;;;38.47;21.75;;;8.50;99.90;;;;;;4932639;29;20040;-83
2022/12/26 00:21:19;;;;;;;53.45;24.05;;;8.50;99.90;;;;;;4916946;29;20042;-85
2022/12/26 00:23:46;;;;;;;51.95;23.98;;;8.50;99.90;;;;;;4926685;29;20051;-84
2022/12/26 00:26:14;;;;;;;72.15;25.60;;;8.50;99.90;;;;;;4927240;29;20114;-83
2022/12/26 00:28:40;;;;;;;67.88;24.45;;;8.50;99.90;;;;;;4917025;29;20050;-83
2022/12/26 00:31:08;;;;;;;52.67;21.63;;;8.50;99.90;;;;;;4930463;29;20063;-83
2022/12/26 00:33:35;;;;;;;78.00;25.48;;;8.50;99.90;;;;;;4913471;29;20476;-83
2022/12/26 00:36:06;;;;;;;73.88;25.90;;;8.50;99.90;;;;;;4914588;29;20043;-83
2022/12/26 00:38:36;;;;;;;73.15;25.00;;;8.50;99.90;;;;;;4931963;29;20427;-83
2022/12/26 00:41:01;;;;;;;44.97;21.50;;;8.50;99.90;;;;;;4943819;28;20103;-85
2022/12/26 00:43:27;;;;;;;58.90;22.75;;;8.50;99.90;;;;;;4917403;29;20040;-83
2022/12/26 00:45:53;;;;;;;58.17;21.92;;;8.50;99.90;;;;;;4928619;29;20506;-83
2022/12/26 00:48:18;;;;;;;51.80;19.73;;;8.50;99.90;;;;;;4929928;29;20042;-84
2022/12/26 00:50:44;;;;;;;73.68;23.92;;;8.50;99.90;;;;;;4933892;29;20067;-83
2022/12/26 00:53:10;;;;;;;69.75;22.98;;;8.50;99.90;;;;;;4916199;29;20071;-82
2022/12/26 00:55:35;;;;;;;63.40;21.80;;;8.50;99.90;;;;;;4917321;29;20063;-83
2022/12/26 00:58:01;;;;;;;80.30;24.83;;;8.50;99.90;;;;;;4913738;29;20031;-82
2022/12/26 01:00:26;;;;;;;86.93;25.77;;;8.50;99.90;;;;;;4932509;29;20043;-84
2022/12/26 01:02:52;;;;;;;100.00;26.98;;;8.50;99.90;;;;;;4912887;29;20040;-83
2022/12/26 01:05:17;;;;;;;55.70;22.30;;;8.50;99.90;;;;;;4915439;29;20094;-84
2022/12/26 01:07:43;;;;;;;64.82;22.23;;;8.50;99.90;;;;;;4919812;29;20541;-85
2022/12/26 01:10:11;;;;;;;60.88;21.65;;;8.50;99.90;;;;;;4932013;29;20031;-83
2022/12/26 01:12:37;;;;;;;64.05;22.13;;;8.50;99.90;;;;;;4932418;29;20043;-83
2022/12/26 01:15:04;;;;;;;49.90;20.88;;;8.50;99.90;;;;;;4931113;29;20507;-84
2022/12/26 01:17:29;;;;;;;55.55;20.33;;;8.50;99.90;;;;;;4930400;29;20564;-83
2022/12/26 01:19:55;;;;;;;49.45;19.73;;;8.50;99.90;;;;;;4931531;29;20040;-85
2022/12/26 01:22:22;;;;;;;66.25;21.75;;;8.50;99.90;;;;;;4930612;29;20032;-83
2022/12/26 01:24:47;;;;;;;62.88;20.13;;;8.50;99.90;;;;;;4918826;29;20047;-84
2022/12/26 01:27:14;;;;;;;68.03;21.42;;;9.00;99.90;;;;;;4932131;29;20660;-84
2022/12/26 01:29:40;;;;;;;59.30;20.25;;;8.60;99.90;;;;;;4915425;29;20028;-84
2022/12/26 01:32:05;;;;;;;80.78;22.50;;;8.60;99.90;;;;;;4937144;29;20040;-84
2022/12/26 01:34:31;;;;;;;71.25;21.05;;;8.60;99.90;;;;;;4937700;29;20039;-84
2022/12/26 01:36:56;;;;;;;58.97;19.63;;;8.60;99.90;;;;;;4934510;29;20148;-84
2022/12/26 01:39:22;;;;;;;61.97;20.98;;;8.60;99.90;;;;;;4932230;29;20522;-84
2022/12/26 01:41:50;;;;;;;66.10;20.75;;;8.60;99.90;;;;;;4916473;29;20031;-84
2022/12/26 01:44:51;;;;;;;64.80;22.08;;;8.50;99.90;;;;;;4945840;29;20059;-84
2022/12/26 01:47:18;;;;;;;75.63;22.77;;;8.60;99.90;;;;;;4928508;29;20043;-84
2022/12/26 01:49:48;;;;;;;78.32;24.95;;;8.60;99.90;;;;;;4932515;29;20039;-84
2022/12/26 01:52:35;;;;;;;56.67;21.23;;;8.60;99.90;;;;;;4931556;29;20406;-84
2022/12/26 01:55:03;;;;;;;76.13;24.33;;;8.60;99.90;;;;;;4929525;29;20036;-84
2022/12/26 01:57:36;;;;;;;82.80;24.50;;;8.60;99.90;;;;;;4914650;29;20036;-85
2022/12/26 02:00:04;;;;;;;58.83;21.27;;;8.60;99.90;;;;;;4925398;29;20463;-84
2022/12/26 02:05:32;;;;;;;67.03;23.00;;;8.60;99.90;;;;;;4932842;29;20039;-84
2022/12/26 02:05:34;;;;;;;66.60;24.05;;;8.60;99.90;;;;;;4931453;29;20134;-84
2022/12/26 02:08:13;;;;;;;51.22;21.33;;;8.60;99.90;;;;;;4933928;29;20047;-85
2022/12/26 02:10:50;;;;;;;64.72;24.27;;;8.60;99.90;;;;;;4916521;29;20047;-83
2022/12/26 02:13:17;;;;;;;63.08;24.42;;;8.70;99.90;;;;;;4930187;29;20106;-84
2022/12/26 02:15:42;;;;;;;61.35;25.13;;;8.70;99.90;;;;;;4916538;29;20551;-84
2022/12/26 02:18:08;;;;;;;58.55;24.33;;;8.70;99.90;;;;;;4932448;29;20115;-84
2022/12/26 02:20:59;;;;;;;53.72;23.05;;;8.70;99.90;;;;;;4925925;29;20043;-84
2022/12/26 02:23:46;;;;;;;56.97;23.67;;;8.60;99.90;;;;;;4930412;29;20047;-85
2022/12/26 02:26:34;;;;;;;52.83;23.02;;;8.70;99.90;;;;;;4919053;29;20044;-84
2022/12/26 02:29:30;;;;;;;55.08;24.90;;;8.70;99.90;;;;;;4914699;29;20407;-85
2022/12/26 02:32:34;;;;;;;53.77;23.50;;;8.70;99.90;;;;;;4917237;29;20048;-84
2022/12/26 02:35:31;;;;;;;47.13;22.90;;;8.70;99.90;;;;;;4929248;29;20311;-84
2022/12/26 02:38:28;;;;;;;42.90;22.27;;;8.60;99.90;;;;;;4930884;29;20043;-84
2022/12/26 02:41:05;;;;;;;39.25;21.95;;;8.70;99.90;;;;;;4913942;29;20044;-84
2022/12/26 02:47:01;;;;;;;50.28;24.83;;;8.70;99.90;;;;;;4911229;29;20047;-84
2022/12/26 02:47:19;;;;;;;43.55;23.95;;;8.70;99.90;;;;;;4898851;29;20048;-85
2022/12/26 03:14:55;;;;;;;46.92;27.45;;;8.90;99.90;;;;;;4931859;29;20094;-84
2022/12/26 03:17:45;;;;;;;48.10;26.33;;;8.90;99.90;;;;;;4914063;29;20046;-84
2022/12/26 03:20:25;;;;;;;54.35;28.58;;;8.90;99.90;;;;;;4933349;29;20047;-84
2022/12/26 03:22:55;;;;;;;57.38;29.60;;;8.90;99.90;;;;;;4945452;28;20447;-84
2022/12/26 03:28:19;;;;;;;56.03;27.95;;;8.90;99.90;;;;;;4933151;29;20051;-84
2022/12/26 03:30:48;;;;;;;59.50;31.25;;;8.80;99.90;;;;;;4915196;29;20491;-84
2022/12/26 03:36:06;;;;;;;61.38;31.23;;;8.90;99.90;;;;;;4926615;29;20040;-84
2022/12/26 03:38:54;;;;;;;56.38;30.38;;;8.90;99.90;;;;;;4926132;29;20039;-83
2022/12/26 04:19:57;;;;;;;62.58;34.17;;;8.90;99.90;;;;;;4933841;29;20047;-83
2022/12/26 04:45:21;;;;;;;38.75;26.92;;;8.90;99.90;;;;;;4931559;29;20126;-84
2022/12/26 04:50:33;;;;;;;38.15;26.42;;;8.90;99.90;;;;;;4929513;29;20187;-84
2022/12/26 04:52:58;;;;;;;36.72;27.65;;;8.80;99.90;;;;;;4929071;29;20059;-84
2022/12/26 04:55:32;;;;;;;34.85;26.02;;;8.80;99.90;;;;;;4932080;29;20379;-84
2022/12/26 04:57:58;;;;;;;34.20;24.98;;;8.80;99.90;;;;;;4913910;29;20039;-85
2022/12/26 05:00:26;;;;;;;35.63;26.35;;;8.80;99.90;;;;;;4912986;29;20039;-83
2022/12/26 05:11:22;;;;;;;31.17;23.40;;;8.80;99.90;;;;;;4931587;29;20058;-83
2022/12/26 05:13:47;;;;;;;33.67;25.65;;;8.80;99.90;;;;;;4933567;29;20036;-84
2022/12/26 05:30:08;;;;;;;27.52;21.55;;;8.80;99.90;;;;;;4933294;29;20525;-84
2022/12/26 05:35:19;;;;;;;24.45;21.30;;;8.70;99.90;;;;;;4934309;29;20036;-83
2022/12/26 05:37:44;;;;;;;24.23;21.40;;;8.70;99.90;;;;;;4930344;29;20478;-84
2022/12/26 05:40:10;;;;;;;25.58;22.15;;;8.70;99.90;;;;;;4921747;29;20055;-83
2022/12/26 05:42:37;;;;;;;28.67;21.13;;;8.70;99.90;;;;;;4913364;29;20068;-83
2022/12/26 05:45:07;;;;;;;22.42;19.83;;;8.70;99.90;;;;;;4918111;29;20039;-84
2022/12/26 05:47:33;;;;;;;25.08;20.92;;;8.70;99.90;;;;;;4953196;28;20128;-84
2022/12/26 05:49:59;;;;;;;22.10;19.67;;;8.70;99.90;;;;;;4936092;29;20203;-84
2022/12/26 05:52:24;;;;;;;23.88;20.15;;;8.70;99.90;;;;;;4929976;29;20063;-84
2022/12/26 05:54:50;;;;;;;22.80;20.30;;;8.70;99.90;;;;;;4931546;29;20131;-84
2022/12/26 05:57:15;;;;;;;23.25;20.77;;;8.70;99.90;;;;;;4918320;29;20063;-83
2022/12/26 05:59:41;;;;;;;23.27;19.67;;;8.70;99.90;;;;;;4936073;29;20044;-83
2022/12/26 06:02:06;;;;;;;23.75;20.30;;;8.70;99.90;;;;;;4931828;29;20083;-84
2022/12/26 06:04:33;;;;;;;24.75;20.42;;;8.70;99.90;;;;;;4920349;29;20101;-84
2022/12/26 06:06:59;;;;;;;25.02;20.90;;;8.70;99.90;;;;;;4926031;29;20173;-83
2022/12/26 06:09:24;;;;;;;25.67;19.88;;;8.70;99.90;;;;;;4917976;29;20530;-84
2022/12/26 06:11:50;;;;;;;26.10;20.40;;;8.70;99.90;;;;;;4935272;29;20036;-83
2022/12/26 06:14:16;;;;;;;21.98;19.45;;;8.70;99.90;;;;;;4934474;29;20602;-84
2022/12/26 06:16:41;;;;;;;26.00;20.77;;;8.80;99.90;;;;;;4932139;29;20506;-84
2022/12/26 06:19:07;;;;;;;24.23;20.45;;;8.80;99.90;;;;;;4935141;29;20067;-83
2022/12/26 06:21:33;;;;;;;21.20;18.98;;;8.80;99.90;;;;;;4931996;29;20458;-84
2022/12/26 06:23:58;;;;;;;22.55;19.42;;;8.80;99.90;;;;;;4928865;29;20044;-83
2022/12/26 06:26:24;;;;;;;21.23;17.92;;;8.80;99.90;;;;;;4934831;29;20051;-83
2022/12/26 06:28:50;;;;;;;19.38;17.30;;;8.90;99.90;;;;;;4917656;29;20431;-84
2022/12/26 06:31:19;;;;;;;20.05;17.77;;;8.90;99.90;;;;;;4931767;29;20171;-83
2022/12/26 06:33:46;;;;;;;18.30;16.20;;;8.90;99.90;;;;;;4933999;29;20392;-84
2022/12/26 06:36:15;;;;;;;19.38;17.02;;;8.90;99.90;;;;;;4932121;29;20055;-83
2022/12/26 06:50:50;;;;;;;17.08;15.35;;;8.90;99.90;;;;;;4884536;29;20055;-85
2022/12/26 06:53:57;;;;;;;18.00;15.77;;;8.90;99.90;;;;;;4913326;29;20047;-83
2022/12/26 07:04:09;;;;;;;18.23;14.82;;;8.90;99.90;;;;;;4934273;29;20038;-85
2022/12/26 07:06:38;;;;;;;17.52;13.63;;;9.10;99.90;;;;;;4929505;29;20134;-85
2022/12/26 07:09:06;;;;;;;16.70;13.30;;;8.90;99.90;;;;;;4920103;29;20138;-83
2022/12/26 07:11:34;;;;;;;19.05;13.57;;;8.90;99.90;;;;;;4940318;29;20040;-83
2022/12/26 07:14:03;;;;;;;15.40;12.75;;;8.90;99.90;;;;;;4921745;29;20036;-84
2022/12/26 07:16:29;;;;;;;15.07;12.57;;;8.90;99.90;;;;;;4925853;29;20051;-85
2022/12/26 07:18:56;;;;;;;15.00;12.73;;;8.90;99.90;;;;;;4924859;29;20987;-84
2022/12/26 07:21:23;;;;;;;16.75;13.30;;;8.90;99.90;;;;;;4909220;29;20040;-83
2022/12/26 07:23:49;;;;;;;14.85;13.00;;;9.00;99.90;;;;;;4907528;29;20079;-84
2022/12/26 07:26:18;;;;;;;14.90;11.98;;;8.90;99.90;;;;;;4928029;29;20108;-84
2022/12/26 07:28:44;;;;;;;15.70;12.88;;;8.90;99.90;;;;;;4916924;29;20047;-83
2022/12/26 07:31:17;;;;;;;13.77;11.25;;;8.90;99.90;;;;;;4928509;29;20064;-84
2022/12/26 07:33:48;;;;;;;16.38;12.52;;;9.00;99.90;;;;;;4916362;29;20138;-84
2022/12/26 07:36:16;;;;;;;16.33;12.43;;;8.90;99.90;;;;;;4928382;29;20122;-84
2022/12/26 07:38:45;;;;;;;13.88;12.57;;;8.90;99.90;;;;;;4917118;29;20063;-84
2022/12/26 07:43:58;;;;;;;14.13;12.77;;;8.90;99.90;;;;;;4932185;29;20043;-85
2022/12/26 07:46:25;;;;;;;16.17;14.35;;;8.90;99.90;;;;;;4929791;29;20507;-85
2022/12/26 07:48:51;;;;;;;14.05;12.60;;;8.90;99.90;;;;;;4918982;29;20074;-86
2022/12/26 07:51:16;;;;;;;17.38;13.02;;;8.90;99.90;;;;;;4927164;29;20060;-85
2022/12/26 07:53:42;;;;;;;15.30;13.07;;;8.90;99.90;;;;;;4918816;29;20039;-87
2022/12/26 07:56:34;;;;;;;15.13;12.20;;;8.90;99.90;;;;;;4930211;29;20039;-88
2022/12/26 07:59:00;;;;;;;14.68;12.90;;;8.90;99.90;;;;;;4909637;29;20123;-88
2022/12/26 08:01:38;;;;;;;13.18;11.77;;;8.90;99.90;;;;;;4933361;29;20067;-87
2022/12/26 08:04:04;;;;;;;14.32;11.95;;;8.90;99.90;;;;;;4916208;29;20036;-87
2022/12/26 08:10:34;;;;;;;16.00;12.00;;;8.80;99.90;;;;;;4928378;29;20114;-88
2022/12/26 08:13:33;;;;;;;14.13;12.25;;;9.10;99.90;;;;;;4924763;29;20110;-88
2022/12/26 08:16:37;;;;;;;533.28;481.15;;;8.80;99.90;;;;;;4933546;29;20422;-87
2022/12/26 08:19:27;;;;;;;16.60;14.88;;;8.80;99.90;;;;;;4933734;29;20039;-88
2022/12/26 08:21:58;;;;;;;21.02;18.67;;;8.80;99.90;;;;;;4938375;29;20058;-88
2022/12/26 08:24:28;;;;;;;16.25;11.88;;;8.90;99.90;;;;;;4928292;29;20040;-86
2022/12/26 08:26:53;;;;;;;13.40;11.63;;;8.80;99.90;;;;;;4928846;29;20103;-86
2022/12/26 08:29:19;;;;;;;13.65;10.05;;;8.90;99.90;;;;;;4930142;29;20123;-87
2022/12/26 08:31:45;;;;;;;17.55;10.88;;;8.90;99.90;;;;;;4915870;29;20048;-86
2022/12/26 08:34:13;;;;;;;11.10;10.00;;;8.90;99.90;;;;;;4933910;29;20094;-86
2022/12/26 08:36:39;;;;;;;14.00;10.65;;;8.90;99.90;;;;;;4931388;29;20044;-85
2022/12/26 08:39:05;;;;;;;10.27;8.65;;;8.90;99.90;;;;;;4914535;29;20529;-86
2022/12/26 08:41:30;;;;;;;10.90;9.27;;;9.00;99.90;;;;;;4927973;29;20091;-85
2022/12/26 08:43:56;;;;;;;8.45;7.65;;;9.00;99.90;;;;;;4923889;29;20083;-84
2022/12/26 08:46:22;;;;;;;11.25;8.18;;;9.00;99.90;;;;;;4915152;29;20481;-84
2022/12/26 08:48:48;;;;;;;12.63;8.13;;;9.00;99.90;;;;;;4916995;29;20051;-85
2022/12/26 08:52:11;;;;;;;12.77;8.52;;;9.00;99.90;;;;;;4912198;29;20074;-87
2022/12/26 08:55:17;;;;;;;16.67;7.40;;;9.00;99.90;;;;;;4920131;29;20075;-88
2022/12/26 08:57:50;;;;;;;13.35;7.00;;;9.10;99.90;;;;;;4934691;28;20052;-86
2022/12/26 09:08:33;;;;;;;9.20;4.45;;;9.20;99.90;;;;;;4867755;29;20071;-86
2022/12/26 09:26:26;;;;;;;8.35;4.97;;;9.30;99.90;;;;;;4785285;29;20072;-88
2022/12/26 09:40:38;;;;;;;8.82;3.33;;;9.10;99.90;;;;;;4825512;29;20039;-87
2022/12/26 09:43:41;;;;;;;11.13;4.47;;;9.30;99.90;;;;;;4837293;29;20083;-86
2022/12/26 09:46:23;;;;;;;7.78;3.30;;;9.40;99.90;;;;;;4794433;29;20588;-86
2022/12/26 09:49:54;;;;;;;6.63;3.22;;;9.30;99.90;;;;;;4788563;29;20058;-89
2022/12/26 09:56:58;;;;;;;8.38;1.92;;;9.30;99.90;;;;;;4868294;29;20086;-87
2022/12/26 09:59:25;;;;;;;9.63;2.28;;;9.20;99.90;;;;;;4907426;29;20106;-86
2022/12/26 10:01:52;;;;;;;17.75;2.65;;;9.30;99.90;;;;;;4910370;28;20055;-85
2022/12/26 10:04:33;;;;;;;16.35;2.00;;;9.00;99.90;;;;;;4939701;28;20032;-85
2022/12/26 10:07:15;;;;;;;12.65;1.80;;;8.90;99.90;;;;;;4924068;29;20111;-86
2022/12/26 10:09:49;;;;;;;17.35;2.92;;;8.80;99.90;;;;;;4918382;29;20136;-85
2022/12/26 10:12:36;;;;;;;13.52;2.72;;;8.70;99.90;;;;;;4930961;29;20051;-87
2022/12/26 10:15:27;;;;;;;10.68;1.83;;;8.60;99.90;;;;;;4930324;29;20044;-83
2022/12/26 10:18:49;;;;;;;10.50;1.10;;;8.60;99.90;;;;;;4929664;29;20067;-83
2022/12/26 10:21:46;;;;;;;10.20;1.38;;;8.50;99.90;;;;;;4922090;29;20051;-83
2022/12/26 10:24:11;;;;;;;4.60;0.93;;;8.40;99.90;;;;;;4920902;29;20035;-84
2022/12/26 10:26:48;;;;;;;10.13;1.60;;;8.40;99.90;;;;;;4911953;29;20039;-83
2022/12/26 10:29:25;;;;;;;11.13;2.05;;;8.30;99.90;;;;;;4912697;29;21403;-84
2022/12/26 10:31:54;;;;;;;11.73;1.60;;;8.30;99.90;;;;;;4925350;29;20090;-83
2022/12/26 10:34:25;;;;;;;15.73;1.85;;;8.20;99.90;;;;;;4929270;29;20102;-86
2022/12/26 10:36:57;;;;;;;12.30;2.22;;;8.20;99.90;;;;;;4911675;29;20092;-84
2022/12/26 10:39:38;;;;;;;7.72;1.05;;;8.20;99.90;;;;;;4924045;29;20058;-85
2022/12/26 10:42:33;;;;;;;7.55;1.38;;;8.20;99.90;;;;;;4901232;29;20404;-85
2022/12/26 10:45:32;;;;;;;10.27;1.20;;;8.20;99.90;;;;;;4912399;29;20102;-87
2022/12/26 10:47:59;;;;;;;8.30;0.93;;;8.60;99.90;;;;;;4905609;29;21017;-86
2022/12/26 10:54:23;;;;;;;13.45;2.10;;;8.20;99.90;;;;;;4892984;29;20557;-87
2022/12/26 10:56:52;;;;;;;8.98;0.93;;;8.10;99.90;;;;;;4911797;29;20079;-87
2022/12/26 10:59:34;;;;;;;9.18;1.42;;;8.10;99.90;;;;;;4945250;28;20398;-87
2022/12/26 11:02:53;;;;;;;10.65;1.77;;;8.10;99.90;;;;;;4910168;29;20874;-88
2022/12/26 11:05:39;;;;;;;9.10;1.38;;;8.10;99.90;;;;;;4928834;29;20048;-88
2022/12/26 11:08:48;;;;;;;13.15;1.73;;;7.90;99.90;;;;;;4910559;29;20506;-87
2022/12/26 11:11:44;;;;;;;10.52;1.40;;;7.80;99.90;;;;;;4927615;29;20498;-87
2022/12/26 11:14:33;;;;;;;11.68;1.52;;;7.70;99.90;;;;;;4928450;29;20140;-86
2022/12/26 11:21:40;;;;;;;9.32;1.25;;;7.70;99.90;;;;;;4931491;29;20062;-89
2022/12/26 11:24:59;;;;;;;10.00;1.40;;;7.70;99.90;;;;;;4864385;29;20052;-90
2022/12/26 11:31:57;;;;;;;12.77;2.22;;;7.70;99.90;;;;;;4871482;29;20071;-85
2022/12/26 11:41:47;;;;;;;9.75;1.15;;;7.80;99.90;;;;;;4900381;29;20083;-83
2022/12/26 11:48:56;;;;;;;7.88;0.93;;;7.80;99.90;;;;;;4944809;28;20075;-87
2022/12/26 12:02:36;;;;;;;8.80;3.05;;;7.80;99.90;;;;;;4888884;29;20514;-84
2022/12/26 12:05:12;;;;;;;8.43;1.40;;;7.80;99.90;;;;;;4872665;29;20068;-84
2022/12/26 12:08:03;;;;;;;8.18;1.60;;;7.80;99.90;;;;;;4871507;29;20057;-84
2022/12/26 12:10:41;;;;;;;10.27;1.88;;;7.90;99.90;;;;;;4880217;29;20048;-84
2022/12/26 12:13:20;;;;;;;16.50;2.05;;;8.00;99.90;;;;;;4925088;28;20558;-85
2022/12/26 12:15:55;;;;;;;14.52;1.98;;;8.20;99.90;;;;;;4911405;28;20142;-83
2022/12/26 12:18:41;;;;;;;14.38;2.38;;;8.30;99.90;;;;;;4925950;29;20040;-85
2022/12/26 12:21:41;;;;;;;10.23;1.38;;;8.40;99.90;;;;;;4929003;29;20043;-83
2022/12/26 12:24:15;;;;;;;10.77;2.03;;;8.30;99.90;;;;;;4897913;29;20062;-82
2022/12/26 12:27:12;;;;;;;8.50;1.50;;;8.40;99.90;;;;;;4902273;29;20050;-82
2022/12/26 12:30:07;;;;;;;17.63;2.58;;;8.40;99.90;;;;;;4927231;29;20066;-82
2022/12/26 12:33:07;;;;;;;15.57;2.80;;;8.40;99.90;;;;;;4906045;29;20134;-84
2022/12/26 12:35:55;;;;;;;13.73;2.33;;;8.20;99.90;;;;;;4921700;29;20078;-84
2022/12/26 12:38:59;;;;;;;18.05;3.35;;;8.30;99.90;;;;;;4925284;29;20078;-83
2022/12/26 12:42:01;;;;;;;15.63;2.75;;;8.20;99.90;;;;;;4906309;29;20059;-84
2022/12/26 12:45:19;;;;;;;11.32;1.70;;;8.10;99.90;;;;;;4905016;29;20051;-84
2022/12/26 12:48:20;;;;;;;16.58;2.65;;;8.10;99.90;;;;;;4924041;29;20126;-84
2022/12/26 12:51:00;;;;;;;10.10;1.83;;;8.10;99.90;;;;;;4907137;29;20062;-84
2022/12/26 12:53:53;;;;;;;13.20;2.17;;;8.10;99.90;;;;;;4919176;29;20047;-87
2022/12/26 12:56:30;;;;;;;9.27;1.77;;;8.10;99.90;;;;;;4907226;29;20036;-86
2022/12/26 12:59:23;;;;;;;12.95;1.90;;;8.10;99.90;;;;;;4913634;29;20032;-87
2022/12/26 13:01:54;;;;;;;12.77;1.92;;;8.00;99.90;;;;;;4923881;29;20050;-86
2022/12/26 13:04:27;;;;;;;10.98;1.67;;;8.00;99.90;;;;;;4895621;29;20487;-86
2022/12/26 13:07:01;;;;;;;11.27;1.80;;;8.10;99.90;;;;;;4909154;29;20116;-86
2022/12/26 13:09:43;;;;;;;16.38;2.13;;;7.90;99.90;;;;;;4905766;29;20716;-85
2022/12/26 13:12:17;;;;;;;14.05;1.65;;;7.90;99.90;;;;;;4907857;29;20454;-85
2022/12/26 13:15:16;;;;;;;12.38;2.30;;;8.00;99.90;;;;;;4938317;28;20047;-86
2022/12/26 13:17:54;;;;;;;16.70;2.65;;;7.90;99.90;;;;;;4895381;29;20063;-85
2022/12/26 13:20:43;;;;;;;15.45;2.05;;;8.00;99.90;;;;;;4912223;29;20039;-85
2022/12/26 13:26:13;;;;;;;12.27;2.35;;;8.10;99.90;;;;;;4924264;29;20056;-88
2022/12/26 13:28:53;;;;;;;8.88;1.88;;;8.10;99.90;;;;;;4909155;29;20044;-86
2022/12/26 13:31:19;;;;;;;14.68;1.90;;;8.10;99.90;;;;;;4927832;28;20434;-85
2022/12/26 13:33:45;;;;;;;13.82;2.15;;;8.10;99.90;;;;;;4946558;28;20048;-85
2022/12/26 13:36:38;;;;;;;10.77;1.75;;;7.90;99.90;;;;;;4908501;28;20483;-85
2022/12/26 13:39:04;;;;;;;13.35;1.75;;;8.00;99.90;;;;;;4906622;29;20466;-85
2022/12/26 13:44:18;;;;;;;14.70;1.55;;;7.90;99.90;;;;;;4925614;29;20052;-85
2022/12/26 13:54:11;;;;;;;13.98;1.63;;;7.70;99.90;;;;;;4923084;29;20047;-82
2022/12/26 13:56:40;;;;;;;14.65;1.42;;;7.70;99.90;;;;;;4921199;29;20143;-83
2022/12/26 13:59:06;;;;;;;5.53;1.00;;;7.60;99.90;;;;;;4921382;29;20046;-84
2022/12/26 14:02:17;;;;;;;16.48;2.60;;;7.60;99.90;;;;;;4909593;29;20048;-81
2022/12/26 14:38:46;;;;;;;16.30;1.33;;;7.30;99.90;;;;;;4922199;29;20060;-83
2022/12/26 14:44:09;;;;;;;13.43;2.22;;;7.10;99.90;;;;;;4925296;29;20051;-84
2022/12/26 14:46:37;;;;;;;;;;;7.00;99.90;;;;;;4925457;29;20039;-84
2022/12/26 14:49:35;;;;;;;11.20;1.30;;;6.90;99.90;;;;;;4905550;29;19919;-84
2022/12/26 14:52:39;;;;;;;16.45;1.85;;;6.90;99.90;;;;;;4910634;29;20589;-84
2022/12/26 14:55:45;;;;;;;13.43;2.75;;;6.80;99.90;;;;;;4913871;29;20093;-84
2022/12/26 14:58:26;;;;;;;17.65;2.00;;;6.80;99.90;;;;;;4929639;29;20036;-85
2022/12/26 15:00:53;;;;;;;14.35;1.30;;;6.70;99.90;;;;;;4924861;29;20059;-85
2022/12/26 15:03:32;;;;;;;12.65;1.80;;;6.70;99.90;;;;;;4908552;29;20068;-85
2022/12/26 15:06:18;;;;;;;14.55;2.03;;;6.60;99.90;;;;;;4928216;29;20167;-85
2022/12/26 15:08:47;;;;;;;10.82;1.83;;;6.60;99.90;;;;;;4911935;29;20415;-84
2022/12/26 15:11:18;;;;;;;12.68;2.10;;;6.50;99.90;;;;;;4927734;29;20040;-85
2022/12/26 15:14:06;;;;;;;13.40;1.65;;;6.50;99.90;;;;;;4925260;29;20099;-84
2022/12/26 15:16:57;;;;;;;11.63;1.65;;;6.50;99.90;;;;;;4905196;29;20047;-84
2022/12/26 15:19:55;;;;;;;11.52;1.65;;;6.50;99.90;;;;;;4913071;29;20044;-84
2022/12/26 15:22:48;;;;;;;12.90;2.13;;;6.40;99.90;;;;;;4911742;29;20039;-84
2022/12/26 15:25:42;;;;;;;14.82;1.70;;;6.40;99.90;;;;;;4925558;29;20454;-89
2022/12/26 15:28:22;;;;;;;14.30;1.95;;;6.30;99.90;;;;;;4925281;29;20145;-87
2022/12/26 15:31:06;;;;;;;7.43;1.17;;;6.20;99.90;;;;;;4910270;29;21633;-82
2022/12/26 15:34:10;;;;;;;17.15;1.50;;;6.20;99.90;;;;;;4914277;29;20044;-85
2022/12/26 15:36:50;;;;;;;12.55;1.60;;;6.10;99.90;;;;;;4920343;29;20067;-84
2022/12/26 15:39:47;;;;;;;13.00;1.85;;;6.00;99.90;;;;;;4910296;29;20515;-83
2022/12/26 15:42:41;;;;;;;15.60;1.73;;;6.00;99.90;;;;;;4908605;29;20047;-83
2022/12/26 15:45:28;;;;;;;18.55;1.77;;;6.00;99.90;;;;;;4909619;29;20039;-83
2022/12/26 15:48:09;;;;;;;14.63;1.88;;;5.90;99.90;;;;;;4907694;29;20074;-83
2022/12/26 15:51:20;;;;;;;10.38;1.58;;;5.80;99.90;;;;;;4924481;29;20635;-84
2022/12/26 15:54:23;;;;;;;13.50;1.98;;;5.80;99.90;;;;;;4906502;29;20056;-83
2022/12/26 15:57:31;;;;;;;10.98;1.67;;;5.70;99.90;;;;;;4914746;29;20044;-84
2022/12/26 16:00:04;;;;;;;9.70;1.52;;;5.60;99.90;;;;;;4937106;28;20595;-84
2022/12/26 16:02:57;;;;;;;13.63;1.67;;;5.60;99.90;;;;;;4906981;29;20040;-84
2022/12/26 16:05:31;;;;;;;15.25;2.35;;;5.50;99.90;;;;;;4913640;29;20414;-84
2022/12/26 16:08:38;;;;;;;17.05;2.05;;;5.70;99.90;;;;;;4929661;29;20122;-84
2022/12/26 16:11:14;;;;;;;16.63;1.98;;;5.50;99.90;;;;;;4917054;29;20050;-85
2022/12/26 16:13:57;;;;;;;8.43;1.38;;;5.40;99.90;;;;;;4930639;29;20048;-84
2022/12/26 16:16:51;;;;;;;13.43;2.28;;;5.30;99.90;;;;;;4928977;29;20039;-88
2022/12/26 16:19:29;;;;;;;12.63;2.78;;;5.30;99.90;;;;;;4916984;29;20396;-84
2022/12/26 16:24:46;;;;;;;13.95;1.50;;;5.20;99.90;;;;;;4931246;29;20055;-84
2022/12/26 16:27:17;;;;;;;12.35;1.77;;;5.10;99.90;;;;;;4914150;29;20047;-85
2022/12/26 16:29:50;;;;;;;9.10;1.42;;;5.10;99.90;;;;;;4929207;29;20499;-85
2022/12/26 16:32:46;;;;;;;11.70;1.52;;;4.50;99.90;;;;;;4929357;29;20541;-88
2022/12/26 16:35:28;;;;;;;11.52;1.77;;;5.00;99.90;;;;;;4910155;29;20039;-88
2022/12/26 16:37:56;;;;;;;10.63;2.53;;;5.00;99.90;;;;;;4921331;29;20085;-88
2022/12/26 16:40:45;;;;;;;12.95;2.17;;;4.90;99.90;;;;;;4919542;29;20071;-87
2022/12/26 16:43:17;;;;;;;8.80;1.23;;;4.90;99.90;;;;;;4913348;29;20046;-86
2022/12/26 16:46:05;;;;;;;12.20;2.38;;;4.90;99.90;;;;;;4917115;29;20052;-87
2022/12/26 16:49:32;;;;;;;12.65;1.58;;;4.80;99.90;;;;;;4933611;29;20039;-89
2022/12/26 16:56:33;;;;;;;12.52;1.50;;;4.90;99.90;;;;;;4878979;29;20052;-88
2022/12/26 16:59:15;;;;;;;12.38;1.85;;;4.70;99.90;;;;;;4928005;29;20054;-88
2022/12/26 17:01:44;;;;;;;10.52;1.52;;;5.20;99.90;;;;;;4939471;29;20052;-89
2022/12/26 17:04:18;;;;;;;14.63;1.77;;;4.60;99.90;;;;;;4936723;29;20506;-87
2022/12/26 17:06:52;;;;;;;14.90;1.27;;;4.60;99.90;;;;;;4935542;29;20039;-88
2022/12/26 17:09:21;;;;;;;16.08;2.35;;;4.50;99.90;;;;;;4928177;29;20039;-88
2022/12/26 17:11:57;;;;;;;16.75;1.60;;;4.50;99.90;;;;;;4925555;29;20051;-88
2022/12/26 17:14:46;;;;;;;11.73;1.08;;;4.50;99.90;;;;;;4936939;29;20103;-88
2022/12/26 17:17:58;;;;;;;9.93;1.50;;;4.50;99.90;;;;;;4938330;29;20086;-88
2022/12/26 17:20:40;;;;;;;11.07;1.63;;;4.40;99.90;;;;;;4925555;29;20048;-86
2022/12/26 17:23:38;;;;;;;11.32;1.00;;;4.40;99.90;;;;;;4908794;29;20083;-87
2022/12/26 17:26:19;;;;;;;8.95;1.25;;;4.40;99.90;;;;;;4903876;29;20063;-86
2022/12/26 17:28:45;;;;;;;11.00;1.98;;;4.40;99.90;;;;;;4924337;29;20048;-82
2022/12/26 17:31:37;;;;;;;9.40;1.42;;;4.40;99.90;;;;;;4934761;29;20035;-84
2022/12/26 17:34:21;;;;;;;9.88;0.93;;;4.30;99.90;;;;;;4933722;29;20070;-86
2022/12/26 17:36:47;;;;;;;9.05;1.25;;;4.30;99.90;;;;;;4931386;29;20040;-87
2022/12/26 17:43:02;;;;;;;16.48;2.75;;;4.30;99.90;;;;;;4939163;29;20066;-83
2022/12/26 17:45:28;;;;;;;15.43;1.48;;;4.20;99.90;;;;;;4931602;29;20083;-87
2022/12/26 17:47:55;;;;;;;11.75;1.70;;;4.10;99.90;;;;;;4923236;29;20036;-84
2022/12/26 17:50:24;;;;;;;10.73;1.30;;;4.10;99.90;;;;;;4937947;29;20038;-87
2022/12/26 17:52:50;;;;;;;13.88;1.88;;;4.00;99.90;;;;;;4937183;29;20185;-85
2022/12/26 17:55:24;;;;;;;9.68;1.48;;;4.00;99.90;;;;;;4932610;29;20039;-83
2022/12/26 17:57:51;;;;;;;11.43;2.40;;;3.90;99.90;;;;;;4923073;29;20031;-83
2022/12/26 18:00:23;;;;;;;11.23;2.15;;;3.90;99.90;;;;;;4920857;29;20040;-82
2022/12/26 18:02:49;;;;;;;14.63;1.98;;;3.90;99.90;;;;;;4938081;29;20055;-84
2022/12/26 18:05:15;;;;;;;9.70;1.52;;;3.80;99.90;;;;;;4916927;29;20122;-84
2022/12/26 18:07:42;;;;;;;12.00;2.05;;;3.80;99.90;;;;;;4916426;29;20076;-84
2022/12/26 18:10:16;;;;;;;13.95;1.25;;;3.80;99.90;;;;;;4913437;29;20039;-84
2022/12/26 18:12:42;;;;;;;6.38;1.00;;;3.80;99.90;;;;;;4929829;29;20095;-84
2022/12/26 18:15:08;;;;;;;18.58;2.13;;;3.80;99.90;;;;;;4924062;29;20043;-86
2022/12/26 18:17:34;;;;;;;12.88;1.50;;;3.70;99.90;;;;;;4934616;29;20032;-82